Friday, April 20, 2018, 4:17 PM EDT
Back to Local

KGFL, Floyd Bennett Memorial Airport

Location: Queensbury, NY, United States Lat: 43.333
Local Time: 4:17 PM EDT (20:17 GMT) Lon: -73.617
Time Zone: US/Eastern Elev: 328 ft

Show me the last for .
Show Decoded

2018-04-20 15:53 METAR KGFL 201953Z AUTO 34014G19KT 10SM OVC048 07/M04 A3020 RMK AO2 SLP233
                 T00671039 =
2018-04-20 14:53 METAR KGFL 201853Z AUTO 34012G19KT 10SM BKN050 07/M04 A3018 RMK AO2 SLP226
                 T00671039 =
2018-04-20 13:53 METAR KGFL 201753Z AUTO 32014KT 10SM BKN050 07/M04 A3016 RMK AO2 SLP221
                 T00671039 10078 20017 53007 =
2018-04-20 12:53 METAR KGFL 201653Z AUTO 35012G19KT 10SM BKN050 07/M04 A3015 RMK AO2 SLP217
                 T00671039 =
2018-04-20 11:53 METAR KGFL 201553Z AUTO 35009KT 10SM FEW060 06/M03 A3014 RMK AO2 SLP214
                 T00611033 =
2018-04-20 10:53 METAR KGFL 201453Z AUTO 34012KT 10SM SCT041 OVC060 04/M04 A3014 RMK AO2 SLP213
                 T00441044 53018 =
2018-04-20 09:53 METAR KGFL 201353Z AUTO 30009KT 10SM FEW037 OVC060 04/M04 A3013 RMK AO2 SLP208
                 T00391044 =
2018-04-20 08:53 METAR KGFL 201253Z AUTO 30011KT 10SM OVC060 03/M04 A3010 RMK AO2 SLP201
                 T00281044 =
2018-04-20 07:53 METAR KGFL 201153Z AUTO 33018G24KT 10SM FEW034 BKN075 02/M05 A3009 RMK AO2
                 SLP196 T00171050 10017 20006 51029 =
2018-04-20 06:53 METAR KGFL 201053Z AUTO 31013KT 10SM CLR 01/M06 A3007 RMK AO2 SLP189 T00061056 =
2018-04-20 05:53 METAR KGFL 200953Z AUTO 32012KT 10SM FEW030 01/M05 A3003 RMK AO2 SLP177
                 T00061050 =
2018-04-20 04:53 METAR KGFL 200853Z AUTO 33011G17KT 10SM OVC080 01/M06 A3000 RMK AO2 SLP167
                 T00061056 53016 =
2018-04-20 03:53 METAR KGFL 200753Z AUTO 30009KT 10SM CLR 01/M06 A2998 RMK AO2 SLP160 T00061056 =
2018-04-20 02:53 METAR KGFL 200653Z AUTO 30013G18KT 10SM OVC080 01/M05 A2997 RMK AO2 SLP155
                 T00111050 =
2018-04-20 01:53 METAR KGFL 200553Z AUTO 31012G20KT 10SM OVC070 01/M06 A2995 RMK AO2 SLP150
                 T00111056 10033 20011 51014 =
2018-04-20 00:53 METAR KGFL 200453Z AUTO 30009KT 10SM OVC060 02/M05 A2995 RMK AO2 SLP147
                 T00171050 400610017 =
2018-04-19 23:53 METAR KGFL 200353Z AUTO 31009KT 10SM OVC070 02/M05 A2993 RMK AO2 SLP140
                 T00171050 =
2018-04-19 22:53 METAR KGFL 200253Z AUTO 31005KT 10SM FEW040 OVC080 02/M05 A2991 RMK AO2 SLP136
                 T00221050 51018 =
2018-04-19 21:53 METAR KGFL 200153Z AUTO 33006KT 10SM SCT090 OVC110 02/M05 A2991 RMK AO2 SLP136
                 T00221050 =
2018-04-19 20:53 METAR KGFL 200053Z AUTO 32009G21KT 10SM OVC085 03/M05 A2990 RMK AO2 SLP131
                 T00281050 =
2018-04-19 19:53 METAR KGFL 192353Z AUTO 33006KT 10SM FEW049 BKN075 BKN095 03/M04 A2986 RMK AO2
                 SLP118 60000 T00331044 10061 20033 51031 =
2018-04-19 18:53 METAR KGFL 192253Z AUTO 34009KT 10SM OVC075 04/M04 A2983 RMK AO2 SLP108
                 T00391044 =
2018-04-19 17:53 METAR KGFL 192153Z AUTO 34014KT 10SM OVC090 05/M05 A2980 RMK AO2 SLP097
                 T00501050 =
2018-04-19 16:53 METAR KGFL 192053Z AUTO 28008KT 10SM SCT055 OVC075 05/M02 A2977 RMK AO2 PK WND
                 29028/2019 RAE01B21E32 SLP086 P0000 60000 T00501022 51021 =

Support USWX by starting your Amazon purchase here.